Time;durP1;ratioP1;P1;durP2;ratioP2;P2;SDS_P1;SDS_P2;PMS_P1;PMS_P2;Temp;Humidity;BMP_temperature;BMP_pressure;BME280_temperature;BME280_humidity;BME280_pressure;Samples;Min_cycle;Max_cycle;Signal;HPM_P1;HPM_P2
2022/03/30 00:01:13;;;;;;;26.70;10.82;;;;;;;18.32;35.55;100434.56;4974967;28;20109;-68
2022/03/30 00:03:39;;;;;;;27.90;12.00;;;;;;;18.29;35.34;100431.38;4974972;28;20031;-68
2022/03/30 00:06:04;;;;;;;30.00;11.82;;;;;;;18.25;34.38;100430.94;4975218;28;20026;-68
2022/03/30 00:08:30;;;;;;;25.60;10.27;;;;;;;18.21;35.74;100426.91;4975399;28;20022;-68
2022/03/30 00:10:56;;;;;;;23.17;10.30;;;;;;;18.20;35.66;100427.94;4973778;28;20058;-68
2022/03/30 00:13:21;;;;;;;24.17;10.68;;;;;;;18.18;35.87;100430.00;4975369;28;20031;-68
2022/03/30 00:15:47;;;;;;;27.35;12.55;;;;;;;18.17;34.82;100419.34;4975140;28;20516;-68
2022/03/30 00:18:13;;;;;;;21.23;10.63;;;;;;;18.13;34.86;100415.31;4975005;28;20031;-68
2022/03/30 00:20:38;;;;;;;28.65;12.45;;;;;;;18.15;34.68;100424.94;4974835;28;20027;-69
2022/03/30 00:23:03;;;;;;;21.05;11.35;;;;;;;18.14;35.05;100422.44;4975151;28;20030;-68
2022/03/30 00:25:29;;;;;;;26.80;11.02;;;;;;;18.15;34.83;100424.09;4974101;28;20491;-68
2022/03/30 00:27:54;;;;;;;25.05;11.77;;;;;;;18.14;35.81;100426.00;4973477;28;20015;-67
2022/03/30 00:30:20;;;;;;;35.33;11.32;;;;;;;18.14;35.13;100422.44;4973902;28;20113;-68
2022/03/30 00:32:46;;;;;;;25.15;11.10;;;;;;;18.12;35.60;100419.09;4975035;28;20105;-68
2022/03/30 00:35:13;;;;;;;31.13;11.60;;;;;;;18.12;35.15;100419.09;4974084;28;20054;-69
2022/03/30 00:37:39;;;;;;;30.02;11.60;;;;;;;18.11;34.50;100418.25;4974646;28;20027;-68
2022/03/30 00:40:06;;;;;;;29.10;11.23;;;;;;;18.11;35.29;100406.56;4974951;28;20026;-68
2022/03/30 00:42:31;;;;;;;26.83;11.20;;;;;;;18.10;35.11;100408.41;4974951;28;20034;-68
2022/03/30 00:44:57;;;;;;;30.42;11.25;;;;;;;18.09;35.04;100414.03;4974835;28;20027;-68
2022/03/30 00:47:26;;;;;;;27.98;12.10;;;;;;;18.09;35.24;100405.91;4973458;28;20027;-68
2022/03/30 00:49:51;;;;;;;26.15;10.63;;;;;;;18.06;35.07;100406.28;4974681;28;20563;-68
2022/03/30 00:52:18;;;;;;;23.33;10.18;;;;;;;18.03;36.08;100408.31;4974673;28;20031;-68
2022/03/30 00:54:48;;;;;;;31.48;11.82;;;;;;;18.01;35.68;100402.25;4975062;28;20106;-69
2022/03/30 00:57:15;;;;;;;28.60;12.40;;;;;;;18.02;35.50;100403.09;4974010;28;20049;-68
2022/03/30 00:59:41;;;;;;;22.85;11.18;;;;;;;17.98;35.21;100391.78;4973387;28;20085;-68
2022/03/30 01:02:07;;;;;;;30.83;12.93;;;;;;;17.99;34.96;100392.63;4974989;28;20031;-68
2022/03/30 01:04:33;;;;;;;26.00;11.13;;;;;;;17.97;35.69;100390.13;4975043;28;20055;-68
2022/03/30 01:06:58;;;;;;;27.35;10.95;;;;;;;17.98;34.87;100390.94;4974872;28;20058;-68
2022/03/30 01:09:24;;;;;;;24.77;11.20;;;;;;;17.96;35.94;100388.44;4974879;28;20085;-68
2022/03/30 01:11:51;;;;;;;31.05;11.05;;;;;;;17.96;36.24;100384.88;4973408;28;20551;-68
2022/03/30 01:14:17;;;;;;;25.63;11.15;;;;;;;17.95;36.26;100381.31;4976673;28;20384;-68
2022/03/30 01:16:42;;;;;;;26.10;11.40;;;;;;;17.94;34.83;100376.09;4978753;28;20031;-68
2022/03/30 01:19:09;;;;;;;32.35;11.50;;;;;;;17.93;35.30;100380.66;4978550;28;20106;-68
2022/03/30 01:21:36;;;;;;;23.60;10.57;;;;;;;17.91;36.04;100376.47;4978214;28;20476;-68
2022/03/30 01:24:02;;;;;;;24.42;10.93;;;;;;;17.90;36.03;100372.91;4978005;28;20501;-68
2022/03/30 01:26:28;;;;;;;27.58;12.02;;;;;;;17.87;34.83;100365.16;4977749;28;20118;-68
2022/03/30 01:28:55;;;;;;;28.75;10.57;;;;;;;17.85;36.43;100361.78;4977691;28;20467;-68
2022/03/30 01:34:05;;;;;;;30.52;11.30;;;;;;;17.81;36.08;100360.47;4977773;28;20037;-68
2022/03/30 01:36:30;;;;;;;24.42;9.80;;;;;;;17.79;35.28;100365.25;4977656;28;20050;-67
2022/03/30 01:38:56;;;;;;;24.30;10.18;;;;;;;17.78;35.32;100352.72;4977744;28;20026;-68
2022/03/30 01:41:21;;;;;;;25.70;10.43;;;;;;;17.76;36.26;100346.66;4977221;28;20027;-68
2022/03/30 01:43:46;;;;;;;33.90;11.55;;;;;;;17.73;35.23;100348.88;4977408;28;20134;-68
2022/03/30 01:46:12;;;;;;;28.50;11.43;;;;;;;17.72;36.02;100353.50;4977601;28;20081;-68
2022/03/30 01:48:38;;;;;;;34.40;10.25;;;;;;;17.73;35.99;100349.72;4977704;28;20023;-67
2022/03/30 01:51:03;;;;;;;21.70;10.30;;;;;;;17.70;36.01;100344.69;4977190;28;20051;-68
2022/03/30 01:53:29;;;;;;;24.27;10.70;;;;;;;17.70;35.56;100360.94;4975938;28;20097;-68
2022/03/30 01:55:54;;;;;;;23.63;10.70;;;;;;;17.68;36.81;100345.91;4977389;28;20035;-68
2022/03/30 01:58:20;;;;;;;28.45;11.40;;;;;;;17.68;36.82;100338.63;4977119;28;20045;-68
2022/03/30 02:00:46;;;;;;;23.05;9.13;;;;;;;17.66;35.29;100337.97;4975740;28;20542;-68
2022/03/30 02:03:12;;;;;;;23.15;10.82;;;;;;;17.64;35.94;100340.03;4977210;28;20027;-68
2022/03/30 02:05:40;;;;;;;26.00;10.93;;;;;;;17.63;36.80;100341.06;4977081;28;20023;-66
2022/03/30 02:08:06;;;;;;;30.75;11.90;;;;;;;17.60;36.42;100336.00;4976903;28;20026;-68
2022/03/30 02:10:31;;;;;;;40.15;12.55;;;;;;;17.57;36.50;100341.81;4977100;28;20161;-68
2022/03/30 02:12:58;;;;;;;23.70;11.05;;;;;;;17.56;35.25;100334.69;4976894;28;20081;-68
2022/03/30 02:15:24;;;;;;;27.20;11.18;;;;;;;17.55;36.84;100341.16;4977103;28;20026;-68
2022/03/30 02:17:50;;;;;;;25.83;12.10;;;;;;;17.55;36.80;100335.75;4976694;28;20038;-68
2022/03/30 02:20:15;;;;;;;30.63;10.68;;;;;;;17.55;36.83;100335.75;4976819;28;20023;-68
2022/03/30 02:22:41;;;;;;;29.70;11.02;;;;;;;17.53;35.78;100332.34;4976869;28;20026;-68
2022/03/30 02:25:07;;;;;;;25.42;11.35;;;;;;;17.52;35.25;100336.06;4976035;28;20499;-68
2022/03/30 02:27:32;;;;;;;30.30;10.45;;;;;;;17.51;36.93;100328.13;4976666;28;20053;-68
2022/03/30 02:29:58;;;;;;;32.55;11.40;;;;;;;17.47;36.44;100324.97;4976737;28;20037;-68
2022/03/30 02:32:23;;;;;;;26.67;10.27;;;;;;;17.45;36.51;100316.16;4976722;28;20481;-68
2022/03/30 02:34:49;;;;;;;35.40;10.73;;;;;;;17.42;35.81;100320.09;4976696;28;20476;-68
2022/03/30 02:37:14;;;;;;;26.08;11.35;;;;;;;17.41;35.47;100306.75;4975115;28;20089;-68
2022/03/30 02:39:40;;;;;;;22.50;9.50;;;;;;;17.38;35.74;100301.69;4976726;28;20023;-68
2022/03/30 02:42:07;;;;;;;26.08;9.52;;;;;;;17.34;36.99;100305.78;4976341;28;20527;-68
2022/03/30 02:44:35;;;;;;;22.00;9.88;;;;;;;17.28;35.48;100298.44;4976612;28;20041;-67
2022/03/30 02:47:01;;;;;;;26.95;9.52;;;;;;;17.24;35.90;100303.38;4976380;28;20058;-68
2022/03/30 02:49:27;;;;;;;22.88;10.52;;;;;;;17.21;35.80;100302.91;4976346;28;20089;-68
2022/03/30 02:51:52;;;;;;;33.13;11.02;;;;;;;17.18;36.83;100300.56;4976299;28;20029;-68
2022/03/30 02:54:18;;;;;;;27.85;10.90;;;;;;;17.16;36.87;100303.47;4958945;28;20030;-68
2022/03/30 02:56:43;;;;;;;22.25;10.10;;;;;;;17.13;35.87;100298.41;4976164;28;20515;-68
2022/03/30 02:59:09;;;;;;;31.08;10.63;;;;;;;17.12;37.26;100306.69;4976179;28;20444;-68
2022/03/30 03:01:34;;;;;;;29.52;11.30;;;;;;;17.11;36.12;100315.88;4976440;28;20038;-69
2022/03/30 03:03:59;;;;;;;25.30;10.35;;;;;;;17.09;36.50;100307.06;4976159;28;20033;-68
2022/03/30 03:06:25;;;;;;;20.50;10.20;;;;;;;17.08;36.09;100308.09;4975944;28;20035;-68
2022/03/30 03:08:51;;;;;;;29.77;10.63;;;;;;;17.03;37.17;100297.00;4976108;28;20065;-68
2022/03/30 03:11:17;;;;;;;27.80;9.57;;;;;;;17.02;37.15;100298.00;4975973;28;20403;-68
2022/03/30 03:13:42;;;;;;;33.13;10.82;;;;;;;17.00;36.04;100297.38;4976008;28;20402;-68
2022/03/30 03:16:07;;;;;;;24.65;10.70;;;;;;;16.96;37.11;100291.47;4975715;28;20464;-69
2022/03/30 03:18:33;;;;;;;34.70;9.95;;;;;;;16.95;36.98;100294.34;4975518;28;20054;-67
2022/03/30 03:20:58;;;;;;;29.77;10.95;;;;;;;16.92;36.16;100289.34;4976018;28;20420;-68
2022/03/30 03:23:23;;;;;;;31.85;10.90;;;;;;;16.91;36.68;100287.63;4975939;28;20061;-68
2022/03/30 03:25:49;;;;;;;26.63;10.45;;;;;;;16.89;37.26;100291.34;4975558;28;20031;-68
2022/03/30 03:28:14;;;;;;;21.15;9.85;;;;;;;16.86;36.20;100294.41;4975590;28;20460;-68
2022/03/30 03:30:41;;;;;;;24.35;9.85;;;;;;;16.85;36.17;100289.22;4975579;28;20439;-67
2022/03/30 03:33:07;;;;;;;28.48;9.43;;;;;;;16.82;37.04;100287.72;4974453;28;20026;-68
2022/03/30 03:35:32;;;;;;;24.75;9.95;;;;;;;16.80;36.83;100284.34;4975567;28;20033;-68
2022/03/30 03:37:59;;;;;;;26.42;10.60;;;;;;;16.78;37.57;100283.69;4975202;28;20029;-68
2022/03/30 03:40:25;;;;;;;25.80;9.65;;;;;;;16.76;37.48;100285.72;4975680;28;20122;-67
2022/03/30 03:42:50;;;;;;;23.17;9.93;;;;;;;16.71;37.65;100282.75;4975452;28;20121;-68
2022/03/30 03:45:16;;;;;;;23.85;9.77;;;;;;;16.67;36.70;100276.00;4975438;28;20476;-67
2022/03/30 03:47:41;;;;;;;29.67;9.60;;;;;;;16.67;37.82;100285.97;4975377;28;20037;-68
2022/03/30 03:50:08;;;;;;;25.27;9.73;;;;;;;16.64;36.98;100276.34;4975558;28;20050;-67
2022/03/30 03:52:34;;;;;;;36.28;10.73;;;;;;;16.59;37.73;100267.97;4975210;28;20396;-68
2022/03/30 03:54:59;;;;;;;25.30;9.98;;;;;;;16.57;37.18;100279.97;4975087;28;20027;-68
2022/03/30 03:57:25;;;;;;;26.77;10.15;;;;;;;16.54;36.63;100275.78;4975357;28;20027;-68
2022/03/30 03:59:51;;;;;;;20.90;9.05;;;;;;;16.50;36.96;100274.41;4975106;28;20062;-68
2022/03/30 04:02:16;;;;;;;22.77;9.88;;;;;;;16.47;36.90;100274.78;4975101;28;20046;-68
2022/03/30 04:04:42;;;;;;;20.05;8.80;;;;;;;16.45;37.80;100271.41;4973728;28;20061;-68
2022/03/30 04:07:07;;;;;;;28.08;9.85;;;;;;;16.42;37.46;100277.19;4974672;28;20532;-67
2022/03/30 04:09:32;;;;;;;24.55;9.27;;;;;;;16.39;36.57;100271.31;4975129;28;20492;-67
2022/03/30 04:11:58;;;;;;;23.35;9.93;;;;;;;16.38;38.38;100280.44;4975055;28;20439;-68
2022/03/30 04:14:23;;;;;;;28.58;9.55;;;;;;;16.36;36.78;100269.78;4974928;28;20029;-68
2022/03/30 04:16:49;;;;;;;29.42;9.98;;;;;;;16.32;37.96;100276.59;4975009;28;20034;-68
2022/03/30 04:19:17;;;;;;;24.63;9.77;;;;;;;16.28;37.27;100269.84;4974696;28;20088;-68
2022/03/30 04:21:43;;;;;;;30.40;9.98;;;;;;;16.27;36.73;100270.88;4975019;28;20050;-68
2022/03/30 04:24:09;;;;;;;25.13;9.90;;;;;;;16.24;37.52;100268.53;4957315;28;20023;-69
2022/03/30 04:26:34;;;;;;;32.63;11.45;;;;;;;16.21;37.32;100269.75;4973707;28;20488;-68
2022/03/30 04:28:59;;;;;;;26.08;10.10;;;;;;;16.20;37.38;100268.06;4975026;28;20023;-67
2022/03/30 04:31:25;;;;;;;21.40;10.35;;;;;;;16.17;36.72;100259.44;4974676;28;20435;-68
2022/03/30 04:33:50;;;;;;;28.77;9.52;;;;;;;16.15;38.42;100253.41;4973927;28;20042;-68
2022/03/30 04:36:16;;;;;;;25.52;9.88;;;;;;;16.12;38.41;100253.75;4974921;28;20487;-68
2022/03/30 04:38:41;;;;;;;32.40;11.00;;;;;;;16.08;37.74;100249.75;4974982;28;20027;-68
2022/03/30 04:41:07;;;;;;;25.95;9.10;;;;;;;16.05;38.07;100248.22;4975259;28;20408;-67
2022/03/30 04:43:32;;;;;;;24.08;9.63;;;;;;;16.02;37.42;100253.16;4974523;28;20082;-68
2022/03/30 04:45:57;;;;;;;23.48;8.68;;;;;;;16.00;38.59;100252.47;4974572;28;20050;-68
2022/03/30 04:48:23;;;;;;;28.50;10.32;;;;;;;15.96;38.85;100253.84;4974810;28;20424;-67
2022/03/30 04:50:49;;;;;;;25.75;10.65;;;;;;;15.91;38.47;100240.91;4978484;28;20455;-68
2022/03/30 04:53:15;;;;;;;26.42;9.35;;;;;;;15.91;38.12;100256.25;4978302;28;20077;-67
2022/03/30 04:55:40;;;;;;;28.42;10.70;;;;;;;15.88;37.35;100256.59;4977187;28;20023;-68
2022/03/30 04:58:06;;;;;;;23.52;9.98;;;;;;;15.85;37.60;100256.97;4978440;28;20110;-68
2022/03/30 05:00:32;;;;;;;30.42;11.77;;;;;;;15.82;37.45;100254.59;4978236;28;20038;-67
2022/03/30 05:02:57;;;;;;;29.27;9.50;;;;;;;15.80;38.54;100254.78;4977047;28;20049;-67
2022/03/30 05:05:23;;;;;;;21.20;9.45;;;;;;;15.78;38.78;100250.56;4978386;28;20110;-68
2022/03/30 05:07:48;;;;;;;31.77;9.13;;;;;;;15.76;38.57;100247.22;4977128;28;20023;-68
2022/03/30 05:10:14;;;;;;;28.02;9.23;;;;;;;15.71;38.46;100240.50;4978106;28;20488;-68
2022/03/30 05:12:40;;;;;;;31.60;11.57;;;;;;;15.69;38.53;100242.50;4978297;28;20033;-67
2022/03/30 05:15:06;;;;;;;25.60;10.68;;;;;;;15.69;37.91;100255.16;4978278;28;20027;-68
2022/03/30 05:17:33;;;;;;;29.38;10.68;;;;;;;15.64;38.93;100250.31;4978549;28;20109;-67
2022/03/30 05:19:59;;;;;;;24.85;9.45;;;;;;;15.62;38.74;100257.75;4977944;28;20113;-67
2022/03/30 05:22:25;;;;;;;29.13;10.82;;;;;;;15.60;37.98;100251.69;4976595;28;20069;-68
2022/03/30 05:24:50;;;;;;;38.63;9.88;;;;;;;15.58;38.41;100253.69;4978714;28;20399;-68
2022/03/30 05:27:15;;;;;;;26.00;10.50;;;;;;;15.57;37.50;100248.50;4978089;28;20042;-68
2022/03/30 05:29:41;;;;;;;25.98;11.90;;;;;;;15.56;38.58;100246.78;4977187;28;20489;-68
2022/03/30 05:32:06;;;;;;;23.33;9.57;;;;;;;15.55;39.07;100253.22;4977647;28;20365;-68
2022/03/30 05:34:32;;;;;;;27.75;10.05;;;;;;;15.53;38.80;100248.00;4978154;28;20033;-68
2022/03/30 05:36:58;;;;;;;24.83;9.45;;;;;;;15.52;38.80;100251.69;4978131;28;20030;-69
2022/03/30 05:39:24;;;;;;;25.83;9.50;;;;;;;15.51;37.73;100244.63;4977678;28;20086;-67
2022/03/30 05:41:49;;;;;;;25.92;10.75;;;;;;;15.50;37.59;100239.41;4977530;28;20031;-68
2022/03/30 05:44:14;;;;;;;25.58;9.68;;;;;;;15.48;38.10;100246.84;4977696;28;20035;-67
2022/03/30 05:46:40;;;;;;;27.38;10.45;;;;;;;15.50;39.02;100247.50;4977454;28;20034;-68
2022/03/30 05:49:05;;;;;;;31.13;11.18;;;;;;;15.50;38.34;100255.59;4977070;28;20043;-68
2022/03/30 05:51:31;;;;;;;27.25;10.45;;;;;;;15.51;38.59;100258.13;4976170;28;20023;-68
2022/03/30 05:53:57;;;;;;;24.13;9.73;;;;;;;15.53;38.99;100268.75;4976065;28;20077;-69
2022/03/30 05:57:00;;;;;;;23.38;11.50;;;;;;;15.53;38.61;100269.59;4976074;28;20058;-68
2022/03/30 05:59:07;;;;;;;29.25;11.13;;;;;;;15.55;37.63;100272.94;4976198;28;20035;-67
2022/03/30 06:01:34;;;;;;;24.80;9.50;;;;;;;15.57;38.40;100272.78;4976784;28;20085;-68
2022/03/30 06:03:59;;;;;;;22.75;9.93;;;;;;;15.57;37.90;100280.88;4976900;28;20106;-67
2022/03/30 06:06:24;;;;;;;26.35;10.75;;;;;;;15.58;38.19;100272.59;4975901;28;20058;-68
2022/03/30 06:08:50;;;;;;;27.40;10.27;;;;;;;15.63;39.02;100281.00;4977100;28;20026;-68
2022/03/30 06:11:15;;;;;;;30.38;9.95;;;;;;;15.70;38.32;100275.75;4975568;28;20101;-68
2022/03/30 06:13:41;;;;;;;29.05;10.88;;;;;;;15.83;38.79;100275.22;4975835;28;20484;-68
2022/03/30 06:16:07;;;;;;;31.67;9.95;;;;;;;15.92;37.65;100274.13;4977180;28;20397;-68
2022/03/30 06:18:32;;;;;;;28.90;11.63;;;;;;;16.00;38.81;100276.78;4976650;28;20416;-68
2022/03/30 06:20:58;;;;;;;32.05;10.25;;;;;;;16.11;38.94;100274.50;4976601;28;20042;-68
2022/03/30 06:23:23;;;;;;;29.85;11.23;;;;;;;16.23;38.67;100283.06;4976741;28;20022;-68
2022/03/30 06:25:49;;;;;;;25.38;10.88;;;;;;;16.36;38.49;100277.91;4976582;28;20089;-68
2022/03/30 06:28:14;;;;;;;27.20;10.90;;;;;;;16.46;37.84;100273.09;4976563;28;20023;-69
2022/03/30 06:30:39;;;;;;;31.08;10.82;;;;;;;16.58;38.30;100290.59;4976654;28;20387;-68
2022/03/30 06:33:05;;;;;;;28.38;10.88;;;;;;;16.69;37.18;100290.19;4975121;28;20117;-67
2022/03/30 06:35:30;;;;;;;30.15;11.65;;;;;;;16.78;37.06;100288.25;4976493;28;20439;-67
2022/03/30 06:37:55;;;;;;;23.65;9.85;;;;;;;16.76;38.71;100284.88;4976522;28;20117;-67
2022/03/30 06:40:21;;;;;;;23.63;10.18;;;;;;;16.73;38.25;100285.25;4976492;28;20047;-67
2022/03/30 06:42:48;;;;;;;39.45;11.18;;;;;;;16.70;37.85;100278.34;4976411;28;20045;-68
2022/03/30 06:45:14;;;;;;;25.17;11.57;;;;;;;16.69;38.81;100282.09;4975152;28;20034;-68
2022/03/30 06:47:40;;;;;;;26.50;10.18;;;;;;;16.68;38.38;100283.09;4976318;28;20030;-67
2022/03/30 06:50:06;;;;;;;31.88;11.57;;;;;;;16.66;38.36;100277.03;4976191;28;20493;-67
2022/03/30 06:52:35;;;;;;;26.05;10.65;;;;;;;16.62;38.27;100281.13;4975310;28;20039;-67
2022/03/30 06:55:01;;;;;;;27.05;10.88;;;;;;;16.59;37.61;100276.06;4976166;28;20105;-66
2022/03/30 06:57:27;;;;;;;32.22;10.90;;;;;;;16.59;38.70;100278.78;4975834;28;20114;-67
2022/03/30 06:59:53;;;;;;;23.80;10.85;;;;;;;16.59;37.34;100288.75;4976343;28;20022;-67
2022/03/30 07:02:19;;;;;;;31.30;10.00;;;;;;;16.59;38.22;100273.38;4976050;28;20035;-67
2022/03/30 07:04:44;;;;;;;24.30;9.90;;;;;;;16.63;37.23;100280.09;4976091;28;20035;-67
2022/03/30 07:12:37;;;;;;;34.42;11.45;;;;;;;16.76;37.19;100280.31;4975523;28;20143;-68
2022/03/30 07:15:03;;;;;;;25.13;10.52;;;;;;;16.81;37.47;100283.31;4975714;28;20054;-66
2022/03/30 07:17:30;;;;;;;24.65;9.68;;;;;;;16.88;37.53;100278.88;4975725;28;20026;-67
2022/03/30 07:19:56;;;;;;;30.75;9.50;;;;;;;16.92;37.87;100278.50;4975407;28;20081;-68
2022/03/30 07:22:21;;;;;;;27.83;10.70;;;;;;;16.98;37.60;100277.75;4975689;28;20034;-67
2022/03/30 07:24:47;;;;;;;29.42;11.10;;;;;;;17.04;38.06;100274.31;4975481;28;20488;-67
2022/03/30 07:27:12;;;;;;;30.83;10.35;;;;;;;17.07;37.29;100271.25;4975809;28;20440;-68
2022/03/30 07:29:37;;;;;;;30.48;10.40;;;;;;;17.13;37.77;100270.50;4974353;28;20027;-67
2022/03/30 07:32:03;;;;;;;31.45;12.55;;;;;;;17.23;37.54;100281.88;4958914;28;20110;-68
2022/03/30 07:34:29;;;;;;;28.65;10.43;;;;;;;17.36;37.32;100276.69;4976387;28;20065;-67
2022/03/30 07:36:56;;;;;;;28.35;10.60;;;;;;;17.54;37.82;100274.47;4974144;28;20117;-67
2022/03/30 07:39:21;;;;;;;25.90;9.73;;;;;;;17.87;36.59;100275.72;4975342;28;20042;-67
2022/03/30 07:41:46;;;;;;;28.25;10.52;;;;;;;18.21;36.67;100271.53;4975159;28;20473;-68
2022/03/30 07:44:12;;;;;;;28.75;11.25;;;;;;;18.41;36.47;100278.00;4975377;28;20073;-67
2022/03/30 07:46:37;;;;;;;30.50;12.35;;;;;;;18.42;36.82;100277.00;4975405;28;20101;-67
2022/03/30 07:49:02;;;;;;;28.92;9.73;;;;;;;18.43;36.73;100262.38;4975190;28;20053;-67
2022/03/30 07:51:29;;;;;;;27.55;9.70;;;;;;;18.44;36.20;100266.78;4975329;28;20109;-67
2022/03/30 07:53:54;;;;;;;24.67;9.15;;;;;;;18.44;37.46;100264.06;4973742;28;20030;-66
2022/03/30 07:56:20;;;;;;;24.17;10.13;;;;;;;18.45;36.97;100263.03;4974944;28;20074;-67
2022/03/30 07:58:48;;;;;;;26.85;11.05;;;;;;;18.46;36.37;100270.13;4975524;28;20023;-66
2022/03/30 08:01:13;;;;;;;28.60;10.30;;;;;;;18.45;37.21;100268.47;4975305;28;20085;-67
2022/03/30 08:03:39;;;;;;;25.63;10.27;;;;;;;18.48;36.32;100258.06;4975213;28;20035;-67
2022/03/30 08:06:04;;;;;;;28.27;10.75;;;;;;;18.53;36.66;100266.50;4975200;28;20147;-67
2022/03/30 08:08:30;;;;;;;24.77;10.50;;;;;;;18.59;36.63;100270.31;4975257;28;20507;-67
2022/03/30 08:10:56;;;;;;;26.05;9.80;;;;;;;18.63;36.69;100266.16;4975029;28;20542;-67
2022/03/30 08:13:21;;;;;;;26.92;10.63;;;;;;;18.68;36.22;100269.13;4974874;28;20057;-67
2022/03/30 08:15:47;;;;;;;33.63;10.00;;;;;;;18.72;35.74;100264.13;4973684;28;20445;-68
2022/03/30 08:18:12;;;;;;;29.88;11.20;;;;;;;18.76;35.30;100263.53;4974869;28;20022;-67
2022/03/30 08:23:22;;;;;;;25.85;9.43;;;;;;;18.86;35.99;100266.78;4974196;28;20034;-67
2022/03/30 08:25:48;;;;;;;25.15;9.65;;;;;;;18.98;35.39;100265.19;4974945;28;20026;-67
2022/03/30 08:28:13;;;;;;;24.70;8.77;;;;;;;19.07;36.56;100261.28;4973639;28;20073;-67
2022/03/30 08:30:39;;;;;;;25.90;10.02;;;;;;;19.12;36.10;100261.53;4974995;28;20384;-67
2022/03/30 08:33:05;;;;;;;26.05;9.77;;;;;;;19.15;35.50;100265.75;4973585;28;20034;-68
2022/03/30 08:35:31;;;;;;;25.65;9.68;;;;;;;19.16;35.46;100254.69;4974578;28;20038;-67
2022/03/30 08:37:57;;;;;;;22.60;8.82;;;;;;;19.16;35.31;100249.25;4974481;28;20046;-67
2022/03/30 08:40:23;;;;;;;27.77;10.02;;;;;;;19.23;35.01;100248.47;4974908;28;20027;-67
2022/03/30 08:42:49;;;;;;;23.42;9.35;;;;;;;19.35;34.94;100253.13;4974499;28;20427;-67
2022/03/30 08:45:14;;;;;;;25.80;9.20;;;;;;;19.47;34.98;100242.56;4974934;28;20027;-67
2022/03/30 08:47:40;;;;;;;26.77;8.95;;;;;;;19.56;35.15;100247.63;4974957;28;20146;-67
2022/03/30 08:50:06;;;;;;;19.95;9.32;;;;;;;19.60;35.39;100239.91;4970574;28;20412;-67
2022/03/30 08:52:32;;;;;;;28.70;10.15;;;;;;;19.66;34.88;100248.09;4974258;28;20035;-68
2022/03/30 08:54:59;;;;;;;20.02;8.95;;;;;;;19.73;34.92;100248.97;4974696;28;20031;-67
2022/03/30 08:57:25;;;;;;;21.67;8.82;;;;;;;19.92;34.72;100246.53;4974662;28;20560;-67
2022/03/30 09:00:11;;;;;;;24.38;9.00;;;;;;;20.14;34.27;100248.06;4974375;28;20026;-67
2022/03/30 09:02:45;;;;;;;21.00;8.52;;;;;;;20.45;34.29;100244.81;4973282;28;20035;-67
2022/03/30 09:05:18;;;;;;;16.67;8.85;;;;;;;20.72;34.06;100249.22;4974988;28;20073;-67
2022/03/30 09:07:48;;;;;;;23.88;8.95;;;;;;;21.09;33.34;100255.94;4973246;28;20029;-67
2022/03/30 09:10:24;;;;;;;21.55;8.55;;;;;;;21.50;33.07;100253.75;4974493;28;20105;-67
2022/03/30 09:12:51;;;;;;;15.00;7.53;;;;;;;21.86;32.96;100253.25;4973160;28;20041;-67
2022/03/30 09:15:20;;;;;;;20.80;7.72;;;;;;;22.18;32.41;100254.97;4974534;28;20035;-67
2022/03/30 09:17:45;;;;;;;13.18;6.72;;;;;;;22.40;32.87;100264.50;4974708;28;20102;-67
2022/03/30 09:20:16;;;;;;;18.27;7.30;;;;;;;22.56;31.54;100255.78;4974027;28;20464;-67
2022/03/30 09:22:47;;;;;;;19.90;7.05;;;;;;;22.79;31.02;100257.13;4974465;28;20026;-67
2022/03/30 09:25:12;;;;;;;16.55;8.20;;;;;;;22.95;31.05;100251.09;4974455;28;20075;-67
2022/03/30 09:27:42;;;;;;;18.65;7.80;;;;;;;23.17;31.42;100246.91;4974041;28;20030;-67
2022/03/30 09:30:12;;;;;;;19.08;7.43;;;;;;;23.47;31.03;100247.88;4974087;28;20100;-67
2022/03/30 09:32:43;;;;;;;17.83;7.97;;;;;;;23.75;30.99;100245.44;4974209;28;20038;-67
2022/03/30 09:35:24;;;;;;;19.83;8.95;;;;;;;23.55;30.82;100239.38;4976407;28;20015;-67
2022/03/30 09:38:03;;;;;;;14.25;7.78;;;;;;;23.39;31.54;100239.16;4977784;28;20496;-67
2022/03/30 09:40:35;;;;;;;22.48;8.88;;;;;;;23.60;30.28;100235.94;4977337;28;20074;-67
2022/03/30 09:43:17;;;;;;;23.85;8.48;;;;;;;23.90;30.36;100228.63;4977206;28;20027;-66
2022/03/30 09:45:44;;;;;;;19.48;8.68;;;;;;;24.27;30.18;100229.41;4977415;28;20109;-66
2022/03/30 09:48:13;;;;;;;17.90;8.02;;;;;;;24.81;30.01;100210.03;4977605;28;20018;-66
2022/03/30 09:50:53;;;;;;;14.07;7.47;;;;;;;25.71;29.00;100210.44;4977482;28;20055;-66
2022/03/30 09:53:21;;;;;;;19.85;8.30;;;;;;;27.43;27.75;100219.84;4977249;28;20523;-66
2022/03/30 09:56:14;;;;;;;18.20;9.93;;;;;;;28.61;26.15;100198.91;4977143;28;20027;-67
2022/03/30 09:58:40;;;;;;;20.90;8.43;;;;;;;28.20;26.09;100201.25;4970763;28;20085;-67
2022/03/30 10:01:29;;;;;;;16.70;8.35;;;;;;;27.93;26.75;100194.03;4977214;28;20069;-67
2022/03/30 10:03:59;;;;;;;14.52;7.07;;;;;;;27.79;27.04;100201.03;4977497;28;20035;-66
2022/03/30 10:06:31;;;;;;;15.55;8.50;;;;;;;27.89;26.54;100193.72;4977353;28;20098;-67
2022/03/30 10:08:56;;;;;;;21.05;8.32;;;;;;;28.08;26.32;100197.84;4977040;28;20431;-66
2022/03/30 10:11:24;;;;;;;12.30;7.53;;;;;;;28.26;25.83;100200.22;4976982;28;20027;-66
2022/03/30 10:13:55;;;;;;;16.90;7.75;;;;;;;28.45;26.47;100192.41;4977062;28;20117;-66
2022/03/30 10:16:21;;;;;;;13.93;7.35;;;;;;;28.66;26.11;100185.19;4977120;28;20105;-66
2022/03/30 10:18:51;;;;;;;14.65;7.90;;;;;;;28.74;25.07;100182.78;4976986;28;20023;-66
2022/03/30 10:21:48;;;;;;;17.27;8.43;;;;;;;28.86;25.89;100182.59;4977238;28;20480;-66
2022/03/30 10:24:28;;;;;;;13.60;6.95;;;;;;;29.19;24.22;100178.66;4924079;28;20131;-66
2022/03/30 10:27:22;;;;;;;20.33;9.38;;;;;;;29.55;24.94;100168.66;4975317;28;20411;-68
2022/03/30 10:29:55;;;;;;;18.45;7.57;;;;;;;29.96;24.61;100171.31;4976686;28;20089;-67
2022/03/30 10:32:22;;;;;;;13.45;7.15;;;;;;;30.09;24.41;100164.44;4976278;28;20027;-66
2022/03/30 10:35:16;;;;;;;17.60;8.02;;;;;;;29.89;24.54;100158.88;4976195;28;20446;-67
2022/03/30 10:37:43;;;;;;;16.60;7.82;;;;;;;29.86;24.92;100159.41;4975002;28;20055;-66
2022/03/30 10:40:10;;;;;;;15.77;7.95;;;;;;;29.71;24.01;100157.41;4976262;28;20392;-66
2022/03/30 10:42:57;;;;;;;17.25;8.43;;;;;;;29.92;23.70;100152.81;4976327;28;20081;-68
2022/03/30 10:45:28;;;;;;;13.93;7.88;;;;;;;30.15;23.50;100149.53;4975618;28;20106;-68
2022/03/30 10:48:19;;;;;;;12.48;6.97;;;;;;;30.37;23.46;100152.91;4976048;28;20028;-68
2022/03/30 10:50:47;;;;;;;18.00;8.63;;;;;;;30.49;23.55;100152.63;4973660;28;20109;-67
2022/03/30 10:53:47;;;;;;;14.93;7.65;;;;;;;30.70;23.82;100150.69;4975834;28;20058;-68
2022/03/30 10:56:18;;;;;;;12.30;7.30;;;;;;;30.86;23.29;100142.09;4964551;28;20042;-67
2022/03/30 10:58:49;;;;;;;17.55;6.68;;;;;;;31.05;22.98;100145.13;4975681;28;20468;-68
2022/03/30 11:01:28;;;;;;;14.63;7.20;;;;;;;31.30;22.93;100142.28;4975624;28;20488;-68
2022/03/30 11:04:18;;;;;;;15.25;7.53;;;;;;;31.41;22.55;100132.81;4975847;28;20125;-68
2022/03/30 11:07:08;;;;;;;12.77;6.82;;;;;;;31.49;22.84;100128.69;4974354;28;20569;-67
2022/03/30 11:09:35;;;;;;;13.48;7.55;;;;;;;31.60;22.56;100127.53;4975340;28;20023;-68
2022/03/30 11:12:05;;;;;;;17.33;6.88;;;;;;;31.79;22.57;100116.63;4975557;28;20551;-68
2022/03/30 11:14:32;;;;;;;10.73;6.78;;;;;;;31.96;22.30;100117.06;4974218;28;20114;-68
2022/03/30 11:17:02;;;;;;;14.98;7.53;;;;;;;32.05;22.41;100110.63;4975656;28;20078;-68
2022/03/30 11:19:30;;;;;;;15.15;6.65;;;;;;;32.04;22.32;100113.72;4975335;28;20033;-68
2022/03/30 11:22:13;;;;;;;13.63;6.60;;;;;;;31.86;22.09;100106.03;4975926;28;20046;-67
2022/03/30 11:24:41;;;;;;;14.70;6.97;;;;;;;31.87;22.39;100110.47;4975929;28;20039;-66